Terminal Aerodrome Forecast
Issued by NWS

Home | Current Version | Previous Version | Text Only | Print | Product List | Glossary On
Versions: 1 2 3 4 5 6 7 8 9 10 11 12 13 14 15 16
000
FTUS41 KLWX 021730
TAFMTN
TAF
KMTN 021730Z 0218/0318 03008KT 5SM -RA BKN008 OVC015
     FM030300 05008KT 5SM -RA BR BKN004 OVC008
     FM031600 06009KT P6SM BKN008 OVC015=

USA.gov is the U.S. government's official web portal to all federal, state and local government web resources and services.